Time;durP1;ratioP1;P1;durP2;ratioP2;P2;SDS_P1;SDS_P2;PMS_P1;PMS_P2;Temp;Humidity;BMP_temperature;BMP_pressure;BME280_temperature;BME280_humidity;BME280_pressure;Samples;Min_cycle;Max_cycle;Signal;HPM_P1;HPM_P2
2022/07/05 00:02:26;;;;;;;0.10;0.10;;;;;;;;;;10535143;28;20040;-66
2022/07/05 00:07:30;;;;;;;0.10;0.10;;;;;;;;;;10557822;28;20381;-68
2022/07/05 00:12:33;;;;;;;0.10;0.10;;;;;;;;;;10566538;28;20240;-67
2022/07/05 00:17:36;;;;;;;0.10;0.10;;;;;;;;;;10523050;28;20044;-67
2022/07/05 00:22:40;;;;;;;0.10;0.10;;;;;;;;;;10575731;28;20216;-66
2022/07/05 00:27:42;;;;;;;0.10;0.10;;;;;;;;;;10523621;28;20063;-67
2022/07/05 00:32:45;;;;;;;0.10;0.10;;;;;;;;;;10534001;28;20079;-66
2022/07/05 00:37:49;;;;;;;0.10;0.10;;;;;;;;;;10579355;28;20339;-67
2022/07/05 00:42:52;;;;;;;0.10;0.10;;;;;;;;;;10571102;28;20340;-67
2022/07/05 00:47:54;;;;;;;0.10;0.10;;;;;;;;;;10537621;28;20323;-67
2022/07/05 00:52:58;;;;;;;0.10;0.10;;;;;;;;;;10537368;28;20055;-67
2022/07/05 00:58:01;;;;;;;0.10;0.10;;;;;;;;;;10537599;28;20048;-67
2022/07/05 01:03:04;;;;;;;0.10;0.10;;;;;;;;;;10526765;28;20048;-66
2022/07/05 01:08:08;;;;;;;0.10;0.10;;;;;;;;;;10558781;28;20270;-67
2022/07/05 01:13:11;;;;;;;0.10;0.10;;;;;;;;;;10532540;28;20060;-67
2022/07/05 01:18:14;;;;;;;0.10;0.10;;;;;;;;;;10520697;28;20078;-67
2022/07/05 01:23:19;;;;;;;0.10;0.10;;;;;;;;;;10535675;28;20052;-67
2022/07/05 01:28:21;;;;;;;0.10;0.10;;;;;;;;;;10521603;28;20051;-67
2022/07/05 01:33:29;;;;;;;0.10;0.10;;;;;;;;;;10558591;28;20246;-67
2022/07/05 01:38:33;;;;;;;0.10;0.10;;;;;;;;;;10548670;28;20040;-67
2022/07/05 01:43:35;;;;;;;0.17;0.17;;;;;;;;;;10534076;28;20051;-67
2022/07/05 01:48:40;;;;;;;0.10;0.10;;;;;;;;;;10533942;28;20048;-67
2022/07/05 01:53:45;;;;;;;0.10;0.10;;;;;;;;;;10555721;28;20063;-67
2022/07/05 01:58:47;;;;;;;0.10;0.10;;;;;;;;;;10539817;28;20071;-67
2022/07/05 02:03:51;;;;;;;0.10;0.10;;;;;;;;;;10551894;28;20400;-67
2022/07/05 02:08:55;;;;;;;0.10;0.10;;;;;;;;;;10560883;28;20052;-68
2022/07/05 02:13:58;;;;;;;0.10;0.10;;;;;;;;;;10561753;28;20239;-67
2022/07/05 02:19:01;;;;;;;0.10;0.10;;;;;;;;;;10542518;28;20045;-66
2022/07/05 02:24:06;;;;;;;0.10;0.10;;;;;;;;;;10545064;28;20052;-66
2022/07/05 02:29:09;;;;;;;0.10;0.10;;;;;;;;;;10517783;28;20048;-67
2022/07/05 02:34:12;;;;;;;0.10;0.10;;;;;;;;;;10520157;28;20064;-66
2022/07/05 02:39:16;;;;;;;0.10;0.10;;;;;;;;;;10552888;28;20039;-67
2022/07/05 02:44:18;;;;;;;0.10;0.10;;;;;;;;;;10573933;28;20044;-66
2022/07/05 02:49:21;;;;;;;0.10;0.10;;;;;;;;;;10559928;28;20220;-67
2022/07/05 02:54:25;;;;;;;0.20;0.20;;;;;;;;;;10573658;28;20577;-67
2022/07/05 02:59:27;;;;;;;0.10;0.10;;;;;;;;;;10573602;28;20040;-67
2022/07/05 03:04:29;;;;;;;0.10;0.10;;;;;;;;;;10567319;28;20044;-67
2022/07/05 03:09:33;;;;;;;3.53;3.33;;;;;;;;;;10533219;28;20048;-67
2022/07/05 03:14:35;;;;;;;0.70;0.70;;;;;;;;;;10530934;28;20048;-67
2022/07/05 03:19:38;;;;;;;6.70;6.40;;;;;;;;;;10530622;28;20047;-67
2022/07/05 03:24:42;;;;;;;0.08;0.08;;;;;;;;;;10523430;28;20363;-67
2022/07/05 03:29:45;;;;;;;0.10;0.10;;;;;;;;;;10550697;28;20048;-66
2022/07/05 03:34:47;;;;;;;0.52;0.52;;;;;;;;;;10510108;28;20060;-66
2022/07/05 03:39:51;;;;;;;5.97;5.78;;;;;;;;;;10495251;28;20043;-66
2022/07/05 03:44:54;;;;;;;6.15;5.95;;;;;;;;;;10491471;28;20052;-67
2022/07/05 03:49:56;;;;;;;6.10;5.90;;;;;;;;;;10527180;28;20311;-68
2022/07/05 03:55:00;;;;;;;5.20;5.00;;;;;;;;;;10535800;28;20048;-67
2022/07/05 04:00:03;;;;;;;5.70;5.50;;;;;;;;;;10518841;28;20041;-67
2022/07/05 04:05:06;;;;;;;0.00;0.00;;;;;;;;;;10527157;28;20095;-68
2022/07/05 04:10:10;;;;;;;0.00;0.00;;;;;;;;;;10532203;28;20051;-68
2022/07/05 04:15:13;;;;;;;0.00;0.00;;;;;;;;;;10496576;28;20053;-68
2022/07/05 04:20:16;;;;;;;0.00;0.00;;;;;;;;;;10481942;28;20056;-68
2022/07/05 04:25:20;;;;;;;0.00;0.00;;;;;;;;;;10495061;28;20244;-68
2022/07/05 04:30:25;;;;;;;0.00;0.00;;;;;;;;;;10531030;28;20059;-68
2022/07/05 04:35:28;;;;;;;8.20;7.90;;;;;;;;;;10537511;28;20048;-67
2022/07/05 04:40:32;;;;;;;7.68;7.38;;;;;;;;;;10536970;28;20041;-67
2022/07/05 04:45:34;;;;;;;1.33;1.27;;;;;;;;;;10536844;28;20354;-67
2022/07/05 04:50:37;;;;;;;0.82;0.82;;;;;;;;;;10565631;28;20048;-67
2022/07/05 04:55:41;;;;;;;0.00;0.00;;;;;;;;;;10578360;28;20044;-68
2022/07/05 05:00:43;;;;;;;0.00;0.00;;;;;;;;;;10572245;28;20044;-67
2022/07/05 05:05:45;;;;;;;0.00;0.00;;;;;;;;;;10543749;28;20044;-68
2022/07/05 05:10:49;;;;;;;0.00;0.00;;;;;;;;;;10537620;28;20040;-68
2022/07/05 05:15:52;;;;;;;0.00;0.00;;;;;;;;;;10547533;28;20055;-68
2022/07/05 05:20:55;;;;;;;0.00;0.00;;;;;;;;;;10543492;28;20047;-68
2022/07/05 05:25:59;;;;;;;0.00;0.00;;;;;;;;;;10531556;28;20047;-68
2022/07/05 05:31:02;;;;;;;7.40;7.10;;;;;;;;;;10554336;28;20328;-67
2022/07/05 05:36:05;;;;;;;0.00;0.00;;;;;;;;;;10576013;28;20063;-67
2022/07/05 05:41:09;;;;;;;0.00;0.00;;;;;;;;;;10556562;28;20043;-67
2022/07/05 05:46:13;;;;;;;7.53;7.22;;;;;;;;;;10544718;28;20047;-68
2022/07/05 05:51:15;;;;;;;6.88;6.68;;;;;;;;;;10562928;28;20048;-68
2022/07/05 05:56:19;;;;;;;0.00;0.00;;;;;;;;;;10531370;28;20053;-68
2022/07/05 06:01:22;;;;;;;0.00;0.00;;;;;;;;;;10519147;28;20061;-68
2022/07/05 06:06:24;;;;;;;0.00;0.00;;;;;;;;;;10519440;28;20052;-69
2022/07/05 06:11:28;;;;;;;0.00;0.00;;;;;;;;;;10519394;28;20044;-70
2022/07/05 06:16:31;;;;;;;0.00;0.00;;;;;;;;;;10541307;28;20047;-69
2022/07/05 06:21:33;;;;;;;1.27;1.27;;;;;;;;;;10574536;28;20047;-68
2022/07/05 06:26:37;;;;;;;0.70;0.70;;;;;;;;;;10574505;28;20043;-70
2022/07/05 06:31:40;;;;;;;0.20;0.20;;;;;;;;;;10553662;28;20059;-70
2022/07/05 06:36:42;;;;;;;0.00;0.00;;;;;;;;;;10547144;28;20048;-68
2022/07/05 06:41:46;;;;;;;0.00;0.00;;;;;;;;;;10558455;28;20255;-70
2022/07/05 06:46:49;;;;;;;0.00;0.00;;;;;;;;;;10547250;28;20315;-68
2022/07/05 06:51:51;;;;;;;0.00;0.00;;;;;;;;;;10518137;28;20255;-68
2022/07/05 06:56:56;;;;;;;0.00;0.00;;;;;;;;;;10556794;28;20040;-71
2022/07/05 07:01:58;;;;;;;0.00;0.00;;;;;;;;;;10557923;28;20092;-69
2022/07/05 07:07:01;;;;;;;0.00;0.00;;;;;;;;;;10533910;28;20275;-69
2022/07/05 07:12:05;;;;;;;0.00;0.00;;;;;;;;;;10531039;28;20041;-70
2022/07/05 07:17:08;;;;;;;0.00;0.00;;;;;;;;;;10529965;28;20060;-70
2022/07/05 07:22:11;;;;;;;0.00;0.00;;;;;;;;;;10541449;28;20107;-68
2022/07/05 07:27:15;;;;;;;0.00;0.00;;;;;;;;;;10573067;28;20055;-70
2022/07/05 07:32:18;;;;;;;0.00;0.00;;;;;;;;;;10532780;28;20132;-68
2022/07/05 07:37:21;;;;;;;0.28;0.28;;;;;;;;;;10533831;28;20059;-69
2022/07/05 07:42:24;;;;;;;;;;;;;;;;;;10539905;28;20051;-68
2022/07/05 07:47:27;;;;;;;2.20;2.20;;;;;;;;;;10552565;28;19916;-70
2022/07/05 07:52:30;;;;;;;1.50;1.50;;;;;;;;;;10557456;28;20067;-69
2022/07/05 07:57:34;;;;;;;1.30;1.30;;;;;;;;;;10541965;28;20052;-69
2022/07/05 08:02:36;;;;;;;1.80;1.80;;;;;;;;;;10536894;28;20051;-70
2022/07/05 08:07:39;;;;;;;2.50;2.50;;;;;;;;;;10515871;28;20059;-70
2022/07/05 08:12:43;;;;;;;2.00;2.00;;;;;;;;;;10532762;28;20048;-69
2022/07/05 08:23:02;;;;;;;1.55;1.55;;;;;;;;;;10537445;28;20064;-69
2022/07/05 08:28:06;;;;;;;3.85;3.00;;;;;;;;;;10526091;28;20110;-70
2022/07/05 08:33:09;;;;;;;0.00;0.00;;;;;;;;;;10519676;28;20059;-70
2022/07/05 08:38:12;;;;;;;0.00;0.00;;;;;;;;;;10530302;28;20041;-70
2022/07/05 08:43:17;;;;;;;0.00;0.00;;;;;;;;;;10536576;28;20059;-71
2022/07/05 08:48:21;;;;;;;0.00;0.00;;;;;;;;;;10552166;28;20044;-70
2022/07/05 08:53:23;;;;;;;4.80;4.70;;;;;;;;;;10564019;28;20047;-70
2022/07/05 08:58:27;;;;;;;0.20;0.20;;;;;;;;;;10578041;28;20055;-69
2022/07/05 09:03:33;;;;;;;2.35;2.35;;;;;;;;;;10568975;28;20335;-71
2022/07/05 09:08:39;;;;;;;8.10;7.80;;;;;;;;;;10538599;28;20381;-70
2022/07/05 09:13:48;;;;;;;20.77;19.77;;;;;;;;;;10535408;28;20297;-70
2022/07/05 09:18:54;;;;;;;29.13;27.55;;;;;;;;;;10555639;28;20342;-70
2022/07/05 09:23:58;;;;;;;31.95;30.25;;;;;;;;;;10576981;28;20071;-69
2022/07/05 09:29:03;;;;;;;26.98;25.58;;;;;;;;;;10576328;28;20256;-69
2022/07/05 09:34:08;;;;;;;20.30;19.30;;;;;;;;;;10563419;28;20052;-68
2022/07/05 09:39:10;;;;;;;13.40;12.80;;;;;;;;;;10576618;28;20048;-69
2022/07/05 09:44:25;;;;;;;8.63;8.32;;;;;;;;;;10565962;28;20044;-68
2022/07/05 09:49:28;;;;;;;5.95;5.75;;;;;;;;;;10574455;28;20220;-69
2022/07/05 09:54:30;;;;;;;0.30;0.30;;;;;;;;;;10537610;28;20058;-69
2022/07/05 09:59:34;;;;;;;0.00;0.00;;;;;;;;;;10571287;28;20040;-70
2022/07/05 10:04:36;;;;;;;0.00;0.00;;;;;;;;;;10560703;28;20127;-68
2022/07/05 10:09:39;;;;;;;0.00;0.00;;;;;;;;;;10524368;28;20060;-68
2022/07/05 10:14:43;;;;;;;0.00;0.00;;;;;;;;;;10533070;28;20087;-68
2022/07/05 10:19:48;;;;;;;0.00;0.00;;;;;;;;;;10552793;28;20111;-68
2022/07/05 10:24:50;;;;;;;0.00;0.00;;;;;;;;;;10555804;28;20056;-68
2022/07/05 10:29:57;;;;;;;0.00;0.00;;;;;;;;;;10537948;28;20040;-68
2022/07/05 10:35:00;;;;;;;0.00;0.00;;;;;;;;;;10532345;28;20082;-70
2022/07/05 10:40:05;;;;;;;0.00;0.00;;;;;;;;;;10565283;28;20055;-68
2022/07/05 10:45:27;;;;;;;0.00;0.00;;;;;;;;;;10538360;28;20044;-68
2022/07/05 10:50:44;;;;;;;0.00;0.00;;;;;;;;;;10569923;28;20040;-70
2022/07/05 10:55:57;;;;;;;0.00;0.00;;;;;;;;;;10557856;28;20359;-70
2022/07/05 11:01:43;;;;;;;0.00;0.00;;;;;;;;;;10519124;28;20060;-68
2022/07/05 11:06:49;;;;;;;0.00;0.00;;;;;;;;;;10553097;28;20058;-68
2022/07/05 11:12:13;;;;;;;0.00;0.00;;;;;;;;;;10571777;28;20049;-68
2022/07/05 11:17:26;;;;;;;0.00;0.00;;;;;;;;;;10534203;28;20067;-70
2022/07/05 11:22:30;;;;;;;0.00;0.00;;;;;;;;;;10555165;28;20043;-69
2022/07/05 11:27:34;;;;;;;0.00;0.00;;;;;;;;;;10545481;28;20040;-70
2022/07/05 11:32:38;;;;;;;0.00;0.00;;;;;;;;;;10552118;28;20344;-67
2022/07/05 11:38:00;;;;;;;0.00;0.00;;;;;;;;;;10547666;28;20043;-70
2022/07/05 11:43:03;;;;;;;0.00;0.00;;;;;;;;;;10548541;28;20040;-70
2022/07/05 11:48:07;;;;;;;0.00;0.00;;;;;;;;;;10516358;28;20071;-68
2022/07/05 11:53:11;;;;;;;0.00;0.00;;;;;;;;;;10521081;28;20067;-70
2022/07/05 11:58:14;;;;;;;0.00;0.00;;;;;;;;;;10516814;28;20259;-68
2022/07/05 12:03:17;;;;;;;0.00;0.00;;;;;;;;;;10527887;28;20052;-70
2022/07/05 12:08:25;;;;;;;0.00;0.00;;;;;;;;;;10530961;28;20059;-68
2022/07/05 12:13:29;;;;;;;0.00;0.00;;;;;;;;;;10573656;28;20043;-68
2022/07/05 12:18:32;;;;;;;0.00;0.00;;;;;;;;;;10565406;28;20048;-69
2022/07/05 12:23:36;;;;;;;0.00;0.00;;;;;;;;;;10544485;28;20063;-68
2022/07/05 12:28:38;;;;;;;0.00;0.00;;;;;;;;;;10523326;28;20331;-71
2022/07/05 12:33:41;;;;;;;0.00;0.00;;;;;;;;;;10523039;28;20291;-69
2022/07/05 12:38:45;;;;;;;0.00;0.00;;;;;;;;;;10556315;28;20324;-70
2022/07/05 12:43:52;;;;;;;0.00;0.00;;;;;;;;;;10564906;28;20338;-69
2022/07/05 12:48:55;;;;;;;0.00;0.00;;;;;;;;;;10544417;28;20063;-70
2022/07/05 12:59:19;;;;;;;0.00;0.00;;;;;;;;;;10536339;28;20048;-70
2022/07/05 13:04:22;;;;;;;0.00;0.00;;;;;;;;;;10522804;28;20049;-68
2022/07/05 13:09:33;;;;;;;0.00;0.00;;;;;;;;;;10550197;28;20078;-68
2022/07/05 13:14:38;;;;;;;0.00;0.00;;;;;;;;;;10555251;28;20048;-68
2022/07/05 13:19:42;;;;;;;0.00;0.00;;;;;;;;;;10520864;28;20090;-68
2022/07/05 13:24:46;;;;;;;0.00;0.00;;;;;;;;;;10545899;28;20055;-70
2022/07/05 13:29:49;;;;;;;0.00;0.00;;;;;;;;;;10548925;28;20040;-68
2022/07/05 13:34:52;;;;;;;0.00;0.00;;;;;;;;;;10538696;28;20236;-68
2022/07/05 13:39:56;;;;;;;0.00;0.00;;;;;;;;;;10544369;28;20040;-68
2022/07/05 13:44:58;;;;;;;0.00;0.00;;;;;;;;;;10554014;28;20274;-68
2022/07/05 13:55:18;;;;;;;0.00;0.00;;;;;;;;;;10520444;28;20060;-68
2022/07/05 14:00:21;;;;;;;0.00;0.00;;;;;;;;;;10527781;28;20059;-69
2022/07/05 14:05:23;;;;;;;0.00;0.00;;;;;;;;;;10553027;28;20048;-69
2022/07/05 14:10:27;;;;;;;0.00;0.00;;;;;;;;;;10558812;28;20059;-68
2022/07/05 14:15:30;;;;;;;0.00;0.00;;;;;;;;;;10563757;28;20044;-69
2022/07/05 14:20:33;;;;;;;0.00;0.00;;;;;;;;;;10573653;28;20082;-69
2022/07/05 14:25:37;;;;;;;0.00;0.00;;;;;;;;;;10572633;28;20047;-69
2022/07/05 14:30:42;;;;;;;0.00;0.00;;;;;;;;;;10554785;28;20081;-69
2022/07/05 14:35:45;;;;;;;0.00;0.00;;;;;;;;;;10532823;28;20056;-68
2022/07/05 14:40:49;;;;;;;0.00;0.00;;;;;;;;;;10518571;28;20049;-68
2022/07/05 14:45:51;;;;;;;0.00;0.00;;;;;;;;;;10489956;28;20052;-68
2022/07/05 14:50:55;;;;;;;0.00;0.00;;;;;;;;;;10543889;28;20052;-68
2022/07/05 14:55:59;;;;;;;;;;;;;;;;;;10550545;28;20040;-69
2022/07/05 15:01:01;;;;;;;0.00;0.00;;;;;;;;;;10518487;28;19923;-69
2022/07/05 15:06:04;;;;;;;;;;;;;;;;;;10524660;28;20220;-69
2022/07/05 15:11:07;;;;;;;0.00;0.00;;;;;;;;;;10565011;28;19923;-69
2022/07/05 15:16:12;;;;;;;0.00;0.00;;;;;;;;;;10549192;28;20082;-70
2022/07/05 15:21:16;;;;;;;0.00;0.00;;;;;;;;;;10551278;28;20354;-69
2022/07/05 15:26:20;;;;;;;0.00;0.00;;;;;;;;;;10567867;28;20051;-74
2022/07/05 15:31:23;;;;;;;0.00;0.00;;;;;;;;;;10558330;28;20057;-76
2022/07/05 15:36:26;;;;;;;0.00;0.00;;;;;;;;;;10573768;28;20052;-69
2022/07/05 15:41:31;;;;;;;0.00;0.00;;;;;;;;;;10571677;28;20046;-69
2022/07/05 15:51:50;;;;;;;0.00;0.00;;;;;;;;;;10570414;28;20055;-69
2022/07/05 15:56:55;;;;;;;0.00;0.00;;;;;;;;;;10623958;28;20047;-70
2022/07/05 16:01:57;;;;;;;0.00;0.00;;;;;;;;;;10620974;28;20234;-70
2022/07/05 16:07:01;;;;;;;0.00;0.00;;;;;;;;;;10551799;28;20045;-70
2022/07/05 16:12:06;;;;;;;0.00;0.00;;;;;;;;;;10562294;28;20216;-69
2022/07/05 16:17:09;;;;;;;0.00;0.00;;;;;;;;;;10577449;28;20350;-69
2022/07/05 16:22:11;;;;;;;0.00;0.00;;;;;;;;;;10563814;28;21457;-69
2022/07/05 16:27:15;;;;;;;0.00;0.00;;;;;;;;;;10547332;28;20051;-70
2022/07/05 16:32:18;;;;;;;0.00;0.00;;;;;;;;;;10567870;28;20060;-69
2022/07/05 16:37:21;;;;;;;0.00;0.00;;;;;;;;;;10570108;28;20040;-70
2022/07/05 16:42:24;;;;;;;0.00;0.00;;;;;;;;;;10545433;28;20068;-68
2022/07/05 16:47:27;;;;;;;0.00;0.00;;;;;;;;;;10555456;28;20045;-69
2022/07/05 16:52:29;;;;;;;0.00;0.00;;;;;;;;;;10564885;28;20043;-69
2022/07/05 16:57:33;;;;;;;0.00;0.00;;;;;;;;;;10562857;28;20048;-68
2022/07/05 17:02:36;;;;;;;0.00;0.00;;;;;;;;;;10536684;28;20205;-68
2022/07/05 17:07:39;;;;;;;0.00;0.00;;;;;;;;;;10549752;28;20040;-69
2022/07/05 17:12:43;;;;;;;0.00;0.00;;;;;;;;;;10554436;28;20044;-68
2022/07/05 17:17:45;;;;;;;0.00;0.00;;;;;;;;;;10537496;28;20055;-68
2022/07/05 17:22:50;;;;;;;0.00;0.00;;;;;;;;;;10548946;28;20055;-68
2022/07/05 17:27:53;;;;;;;0.00;0.00;;;;;;;;;;10534877;28;20059;-68
2022/07/05 17:32:57;;;;;;;0.00;0.00;;;;;;;;;;10533213;28;20064;-68
2022/07/05 17:37:59;;;;;;;0.00;0.00;;;;;;;;;;10538591;28;20059;-68
2022/07/05 17:43:03;;;;;;;1.03;1.03;;;;;;;;;;10534503;28;20036;-70
2022/07/05 17:48:06;;;;;;;0.00;0.00;;;;;;;;;;10520823;28;20335;-69
2022/07/05 17:53:08;;;;;;;0.75;0.75;;;;;;;;;;10547026;28;20048;-70
2022/07/05 17:58:12;;;;;;;0.00;0.00;;;;;;;;;;10548632;28;20040;-70
2022/07/05 18:03:16;;;;;;;0.60;0.60;;;;;;;;;;10531848;28;20052;-68
2022/07/05 18:08:19;;;;;;;0.00;0.00;;;;;;;;;;10543884;28;20052;-68
2022/07/05 18:13:23;;;;;;;0.00;0.00;;;;;;;;;;10532588;28;20074;-68
2022/07/05 18:18:26;;;;;;;0.00;0.00;;;;;;;;;;10533717;28;20304;-68
2022/07/05 18:23:28;;;;;;;0.00;0.00;;;;;;;;;;10562024;28;20043;-68
2022/07/05 18:28:32;;;;;;;0.00;0.00;;;;;;;;;;10533096;28;20267;-69
2022/07/05 18:33:35;;;;;;;0.00;0.00;;;;;;;;;;10535189;28;20060;-68
2022/07/05 18:38:37;;;;;;;0.00;0.00;;;;;;;;;;10519324;28;20236;-69
2022/07/05 18:43:41;;;;;;;0.00;0.00;;;;;;;;;;10569895;28;20340;-69
2022/07/05 18:48:46;;;;;;;0.00;0.00;;;;;;;;;;10562526;28;20091;-70
2022/07/05 18:53:48;;;;;;;0.00;0.00;;;;;;;;;;10536480;28;20040;-69
2022/07/05 18:58:53;;;;;;;0.00;0.00;;;;;;;;;;10569444;28;20052;-69
2022/07/05 19:03:56;;;;;;;0.00;0.00;;;;;;;;;;10531255;28;20037;-69
2022/07/05 19:14:19;;;;;;;0.00;0.00;;;;;;;;;;10536838;28;20043;-68
2022/07/05 19:19:22;;;;;;;0.00;0.00;;;;;;;;;;10560724;28;20059;-68
2022/07/05 19:24:25;;;;;;;0.00;0.00;;;;;;;;;;10569637;28;20048;-69
2022/07/05 19:29:29;;;;;;;0.00;0.00;;;;;;;;;;10516916;28;20059;-68
2022/07/05 19:34:32;;;;;;;0.00;0.00;;;;;;;;;;10528244;28;20055;-67
2022/07/05 19:39:36;;;;;;;0.00;0.00;;;;;;;;;;10519715;28;20377;-67
2022/07/05 19:44:40;;;;;;;0.00;0.00;;;;;;;;;;10554201;28;20040;-67
2022/07/05 19:49:42;;;;;;;;;;;;;;;;;;10566840;28;20228;-67
2022/07/05 19:54:47;;;;;;;0.00;0.00;;;;;;;;;;10588250;28;19916;-67
2022/07/05 19:59:50;;;;;;;0.00;0.00;;;;;;;;;;10556260;28;20059;-67
2022/07/05 20:04:53;;;;;;;0.00;0.00;;;;;;;;;;10541323;28;20056;-67
2022/07/05 20:09:55;;;;;;;0.10;0.10;;;;;;;;;;10558106;28;20059;-67
2022/07/05 20:14:59;;;;;;;0.00;0.00;;;;;;;;;;10558068;28;20067;-67
2022/07/05 20:20:01;;;;;;;0.00;0.00;;;;;;;;;;10552104;28;20059;-67
2022/07/05 20:25:05;;;;;;;0.00;0.00;;;;;;;;;;10568369;28;20066;-67
2022/07/05 20:30:10;;;;;;;0.00;0.00;;;;;;;;;;10563879;28;20048;-67
2022/07/05 20:35:13;;;;;;;0.00;0.00;;;;;;;;;;10490997;28;20048;-67
2022/07/05 20:40:15;;;;;;;0.00;0.00;;;;;;;;;;10496239;28;20041;-66
2022/07/05 20:45:19;;;;;;;0.10;0.10;;;;;;;;;;10527767;28;20351;-67
2022/07/05 20:50:22;;;;;;;0.10;0.10;;;;;;;;;;10504377;28;20396;-67
2022/07/05 20:55:25;;;;;;;0.10;0.10;;;;;;;;;;10500376;28;20047;-67
2022/07/05 21:00:29;;;;;;;0.10;0.10;;;;;;;;;;10536940;28;20086;-68
2022/07/05 21:05:32;;;;;;;0.10;0.10;;;;;;;;;;10516736;28;20097;-69
2022/07/05 21:10:34;;;;;;;0.10;0.10;;;;;;;;;;10508787;28;20236;-68
2022/07/05 21:15:38;;;;;;;0.10;0.10;;;;;;;;;;10505376;28;20044;-68
2022/07/05 21:20:41;;;;;;;0.10;0.10;;;;;;;;;;10522462;28;20233;-68
2022/07/05 21:25:43;;;;;;;0.10;0.10;;;;;;;;;;10487381;28;20328;-68
2022/07/05 21:30:48;;;;;;;0.10;0.10;;;;;;;;;;10515241;28;20246;-67
2022/07/05 21:35:54;;;;;;;0.10;0.10;;;;;;;;;;10540784;28;20058;-69
2022/07/05 21:40:57;;;;;;;0.10;0.10;;;;;;;;;;10555905;28;20068;-68
2022/07/05 21:46:00;;;;;;;0.10;0.10;;;;;;;;;;10521927;28;20227;-68
2022/07/05 21:51:03;;;;;;;0.10;0.10;;;;;;;;;;10535227;28;20217;-67
2022/07/05 21:56:06;;;;;;;0.10;0.10;;;;;;;;;;10541001;28;20213;-68
2022/07/05 22:06:41;;;;;;;0.10;0.10;;;;;;;;;;10434256;28;20049;-68
2022/07/05 22:11:44;;;;;;;0.10;0.10;;;;;;;;;;10445361;28;20234;-67
2022/07/05 22:16:48;;;;;;;0.10;0.10;;;;;;;;;;10446309;28;20064;-68
2022/07/05 22:21:51;;;;;;;0.10;0.10;;;;;;;;;;10435413;28;20050;-69
2022/07/05 22:26:54;;;;;;;0.10;0.10;;;;;;;;;;10409527;28;20084;-68
2022/07/05 22:31:58;;;;;;;0.10;0.10;;;;;;;;;;10400335;28;20064;-68
2022/07/05 22:37:01;;;;;;;0.10;0.10;;;;;;;;;;10405724;28;20215;-68
2022/07/05 22:42:04;;;;;;;0.10;0.10;;;;;;;;;;10539859;28;20048;-67
2022/07/05 22:47:08;;;;;;;0.10;0.10;;;;;;;;;;10575162;28;20050;-68
2022/07/05 22:52:11;;;;;;;0.10;0.10;;;;;;;;;;10574523;28;20040;-69
2022/07/05 22:57:16;;;;;;;0.10;0.10;;;;;;;;;;10542443;28;20063;-69
2022/07/05 23:02:20;;;;;;;0.10;0.10;;;;;;;;;;10533257;28;20040;-68
2022/07/05 23:07:22;;;;;;;0.10;0.10;;;;;;;;;;10545416;28;20048;-67
2022/07/05 23:12:25;;;;;;;0.20;0.20;;;;;;;;;;10574056;28;20047;-68
2022/07/05 23:17:29;;;;;;;0.10;0.10;;;;;;;;;;10573113;28;20050;-69
2022/07/05 23:22:32;;;;;;;0.10;0.10;;;;;;;;;;10569423;28;20036;-68
2022/07/05 23:27:36;;;;;;;0.10;0.10;;;;;;;;;;10551935;28;20043;-68
2022/07/05 23:32:40;;;;;;;0.10;0.10;;;;;;;;;;10545122;28;20056;-68
2022/07/05 23:37:43;;;;;;;0.10;0.10;;;;;;;;;;10531788;28;20282;-68
2022/07/05 23:42:46;;;;;;;0.10;0.10;;;;;;;;;;10530664;28;20336;-68
2022/07/05 23:47:50;;;;;;;0.10;0.10;;;;;;;;;;10531180;28;20045;-68
2022/07/05 23:52:52;;;;;;;0.20;0.20;;;;;;;;;;10530524;28;20041;-68
2022/07/05 23:57:55;;;;;;;0.20;0.20;;;;;;;;;;10534738;28;20060;-69
